sensor_id;sensor_type;location;lat;lon;timestamp;P1;durP1;ratioP1;P2;durP2;ratioP2
9675;SDS011;4876;42.656;23.292;2022-12-08T00:00:27;52.07;;;31.13;;
9675;SDS011;4876;42.656;23.292;2022-12-08T00:02:53;57.77;;;32.93;;
9675;SDS011;4876;42.656;23.292;2022-12-08T00:05:20;58.00;;;35.23;;
9675;SDS011;4876;42.656;23.292;2022-12-08T00:08:04;57.57;;;36.23;;
9675;SDS011;4876;42.656;23.292;2022-12-08T00:10:50;61.33;;;36.67;;
9675;SDS011;4876;42.656;23.292;2022-12-08T00:13:17;66.87;;;37.13;;
9675;SDS011;4876;42.656;23.292;2022-12-08T00:15:43;58.43;;;37.20;;
9675;SDS011;4876;42.656;23.292;2022-12-08T00:18:10;68.10;;;37.47;;
9675;SDS011;4876;42.656;23.292;2022-12-08T00:20:37;60.00;;;35.73;;
9675;SDS011;4876;42.656;23.292;2022-12-08T00:23:04;62.67;;;34.50;;
9675;SDS011;4876;42.656;23.292;2022-12-08T00:25:33;56.17;;;33.13;;
9675;SDS011;4876;42.656;23.292;2022-12-08T00:28:02;49.43;;;31.10;;
9675;SDS011;4876;42.656;23.292;2022-12-08T00:30:29;52.90;;;32.03;;
9675;SDS011;4876;42.656;23.292;2022-12-08T00:32:56;54.23;;;31.63;;
9675;SDS011;4876;42.656;23.292;2022-12-08T00:35:23;46.23;;;29.07;;
9675;SDS011;4876;42.656;23.292;2022-12-08T00:37:50;49.30;;;30.57;;
9675;SDS011;4876;42.656;23.292;2022-12-08T00:40:16;46.43;;;28.77;;
9675;SDS011;4876;42.656;23.292;2022-12-08T00:42:43;48.50;;;29.00;;
9675;SDS011;4876;42.656;23.292;2022-12-08T00:45:12;46.83;;;29.87;;
9675;SDS011;4876;42.656;23.292;2022-12-08T00:47:38;52.83;;;29.20;;
9675;SDS011;4876;42.656;23.292;2022-12-08T00:50:06;48.87;;;30.87;;
9675;SDS011;4876;42.656;23.292;2022-12-08T00:52:33;50.20;;;29.33;;
9675;SDS011;4876;42.656;23.292;2022-12-08T00:55:00;52.13;;;30.57;;
9675;SDS011;4876;42.656;23.292;2022-12-08T00:57:27;46.03;;;28.77;;
9675;SDS011;4876;42.656;23.292;2022-12-08T00:59:53;46.90;;;27.37;;
9675;SDS011;4876;42.656;23.292;2022-12-08T01:02:22;44.70;;;27.80;;
9675;SDS011;4876;42.656;23.292;2022-12-08T01:04:50;48.07;;;28.47;;
9675;SDS011;4876;42.656;23.292;2022-12-08T01:07:16;46.47;;;28.20;;
9675;SDS011;4876;42.656;23.292;2022-12-08T01:09:43;45.00;;;28.00;;
9675;SDS011;4876;42.656;23.292;2022-12-08T01:12:10;45.47;;;27.57;;
9675;SDS011;4876;42.656;23.292;2022-12-08T01:14:37;48.57;;;28.27;;
9675;SDS011;4876;42.656;23.292;2022-12-08T01:17:03;43.10;;;28.27;;
9675;SDS011;4876;42.656;23.292;2022-12-08T01:19:33;44.07;;;28.17;;
9675;SDS011;4876;42.656;23.292;2022-12-08T01:22:00;48.40;;;27.67;;
9675;SDS011;4876;42.656;23.292;2022-12-08T01:24:26;52.73;;;27.17;;
9675;SDS011;4876;42.656;23.292;2022-12-08T01:26:53;39.83;;;25.83;;
9675;SDS011;4876;42.656;23.292;2022-12-08T01:29:20;41.87;;;26.77;;
9675;SDS011;4876;42.656;23.292;2022-12-08T01:31:47;43.33;;;26.80;;
9675;SDS011;4876;42.656;23.292;2022-12-08T01:34:14;44.67;;;25.33;;
9675;SDS011;4876;42.656;23.292;2022-12-08T01:36:42;42.77;;;26.70;;
9675;SDS011;4876;42.656;23.292;2022-12-08T01:39:09;47.03;;;25.67;;
9675;SDS011;4876;42.656;23.292;2022-12-08T01:41:40;38.53;;;22.20;;
9675;SDS011;4876;42.656;23.292;2022-12-08T01:47:12;39.43;;;23.70;;
9675;SDS011;4876;42.656;23.292;2022-12-08T01:49:38;44.10;;;25.63;;
9675;SDS011;4876;42.656;23.292;2022-12-08T01:52:09;44.63;;;26.13;;
9675;SDS011;4876;42.656;23.292;2022-12-08T01:54:40;41.27;;;25.93;;
9675;SDS011;4876;42.656;23.292;2022-12-08T01:57:13;43.50;;;26.20;;
9675;SDS011;4876;42.656;23.292;2022-12-08T01:59:44;45.10;;;25.80;;
9675;SDS011;4876;42.656;23.292;2022-12-08T02:02:13;43.73;;;26.77;;
9675;SDS011;4876;42.656;23.292;2022-12-08T02:04:41;37.23;;;23.10;;
9675;SDS011;4876;42.656;23.292;2022-12-08T02:07:09;44.53;;;24.07;;
9675;SDS011;4876;42.656;23.292;2022-12-08T02:09:39;42.27;;;24.57;;
9675;SDS011;4876;42.656;23.292;2022-12-08T02:12:07;44.00;;;23.13;;
9675;SDS011;4876;42.656;23.292;2022-12-08T02:14:35;37.97;;;22.70;;
9675;SDS011;4876;42.656;23.292;2022-12-08T02:17:03;41.30;;;22.63;;
9675;SDS011;4876;42.656;23.292;2022-12-08T02:20:03;36.80;;;22.83;;
9675;SDS011;4876;42.656;23.292;2022-12-08T02:22:51;39.30;;;24.53;;
9675;SDS011;4876;42.656;23.292;2022-12-08T02:25:24;36.70;;;22.87;;
9675;SDS011;4876;42.656;23.292;2022-12-08T02:27:59;38.50;;;22.70;;
9675;SDS011;4876;42.656;23.292;2022-12-08T02:30:37;41.43;;;23.47;;
9675;SDS011;4876;42.656;23.292;2022-12-08T02:36:18;44.40;;;22.10;;
9675;SDS011;4876;42.656;23.292;2022-12-08T02:38:51;38.37;;;22.77;;
9675;SDS011;4876;42.656;23.292;2022-12-08T02:41:28;36.90;;;22.17;;
9675;SDS011;4876;42.656;23.292;2022-12-08T02:44:04;34.60;;;21.73;;
9675;SDS011;4876;42.656;23.292;2022-12-08T02:46:39;37.60;;;21.80;;
9675;SDS011;4876;42.656;23.292;2022-12-08T02:49:13;38.93;;;22.27;;
9675;SDS011;4876;42.656;23.292;2022-12-08T02:51:40;33.73;;;20.67;;
9675;SDS011;4876;42.656;23.292;2022-12-08T02:54:07;36.63;;;21.73;;
9675;SDS011;4876;42.656;23.292;2022-12-08T02:56:39;32.40;;;20.40;;
9675;SDS011;4876;42.656;23.292;2022-12-08T02:59:21;36.03;;;21.33;;
9675;SDS011;4876;42.656;23.292;2022-12-08T03:01:58;34.93;;;21.80;;
9675;SDS011;4876;42.656;23.292;2022-12-08T03:04:42;34.90;;;21.43;;
9675;SDS011;4876;42.656;23.292;2022-12-08T03:07:12;38.73;;;23.10;;
9675;SDS011;4876;42.656;23.292;2022-12-08T03:09:45;38.97;;;23.10;;
9675;SDS011;4876;42.656;23.292;2022-12-08T03:12:17;38.70;;;24.30;;
9675;SDS011;4876;42.656;23.292;2022-12-08T03:14:50;37.60;;;22.57;;
9675;SDS011;4876;42.656;23.292;2022-12-08T03:17:19;36.47;;;23.50;;
9675;SDS011;4876;42.656;23.292;2022-12-08T03:19:50;34.43;;;21.57;;
9675;SDS011;4876;42.656;23.292;2022-12-08T03:22:20;38.20;;;21.87;;
9675;SDS011;4876;42.656;23.292;2022-12-08T03:24:49;39.63;;;22.03;;
9675;SDS011;4876;42.656;23.292;2022-12-08T03:27:17;34.40;;;20.37;;
9675;SDS011;4876;42.656;23.292;2022-12-08T03:29:47;45.83;;;21.60;;
9675;SDS011;4876;42.656;23.292;2022-12-08T03:32:18;34.07;;;20.00;;
9675;SDS011;4876;42.656;23.292;2022-12-08T03:34:51;33.07;;;20.53;;
9675;SDS011;4876;42.656;23.292;2022-12-08T03:37:19;35.00;;;20.47;;
9675;SDS011;4876;42.656;23.292;2022-12-08T03:39:46;37.03;;;20.07;;
9675;SDS011;4876;42.656;23.292;2022-12-08T03:42:13;34.93;;;20.60;;
9675;SDS011;4876;42.656;23.292;2022-12-08T03:44:40;37.07;;;20.27;;
9675;SDS011;4876;42.656;23.292;2022-12-08T03:47:07;35.57;;;19.67;;
9675;SDS011;4876;42.656;23.292;2022-12-08T03:49:34;31.07;;;19.30;;
9675;SDS011;4876;42.656;23.292;2022-12-08T03:52:02;30.60;;;18.13;;
9675;SDS011;4876;42.656;23.292;2022-12-08T03:54:30;38.83;;;20.10;;
9675;SDS011;4876;42.656;23.292;2022-12-08T03:56:57;37.00;;;20.67;;
9675;SDS011;4876;42.656;23.292;2022-12-08T03:59:24;29.63;;;20.57;;
9675;SDS011;4876;42.656;23.292;2022-12-08T04:01:51;31.70;;;18.73;;
9675;SDS011;4876;42.656;23.292;2022-12-08T04:04:17;33.63;;;19.73;;
9675;SDS011;4876;42.656;23.292;2022-12-08T04:06:44;31.50;;;19.23;;
9675;SDS011;4876;42.656;23.292;2022-12-08T04:09:12;34.97;;;20.23;;
9675;SDS011;4876;42.656;23.292;2022-12-08T04:11:39;31.23;;;19.73;;
9675;SDS011;4876;42.656;23.292;2022-12-08T04:14:06;38.00;;;20.20;;
9675;SDS011;4876;42.656;23.292;2022-12-08T04:16:33;33.13;;;19.70;;
9675;SDS011;4876;42.656;23.292;2022-12-08T04:19:00;35.53;;;20.80;;
9675;SDS011;4876;42.656;23.292;2022-12-08T04:21:27;31.43;;;20.20;;
9675;SDS011;4876;42.656;23.292;2022-12-08T04:23:53;34.67;;;21.50;;
9675;SDS011;4876;42.656;23.292;2022-12-08T04:26:21;36.83;;;20.77;;
9675;SDS011;4876;42.656;23.292;2022-12-08T04:28:49;35.53;;;21.57;;
9675;SDS011;4876;42.656;23.292;2022-12-08T04:31:15;43.67;;;21.53;;
9675;SDS011;4876;42.656;23.292;2022-12-08T04:33:43;40.07;;;22.27;;
9675;SDS011;4876;42.656;23.292;2022-12-08T04:36:10;35.97;;;22.43;;
9675;SDS011;4876;42.656;23.292;2022-12-08T04:38:37;38.97;;;21.87;;
9675;SDS011;4876;42.656;23.292;2022-12-08T04:41:03;39.50;;;22.23;;
9675;SDS011;4876;42.656;23.292;2022-12-08T04:43:31;38.03;;;20.77;;
9675;SDS011;4876;42.656;23.292;2022-12-08T04:45:58;44.73;;;21.93;;
9675;SDS011;4876;42.656;23.292;2022-12-08T04:48:25;39.50;;;20.37;;
9675;SDS011;4876;42.656;23.292;2022-12-08T04:50:52;37.63;;;20.53;;
9675;SDS011;4876;42.656;23.292;2022-12-08T04:53:19;34.60;;;21.27;;
9675;SDS011;4876;42.656;23.292;2022-12-08T04:55:46;36.37;;;21.27;;
9675;SDS011;4876;42.656;23.292;2022-12-08T04:58:14;36.10;;;21.37;;
9675;SDS011;4876;42.656;23.292;2022-12-08T05:00:43;39.80;;;22.90;;
9675;SDS011;4876;42.656;23.292;2022-12-08T05:03:11;37.20;;;22.67;;
9675;SDS011;4876;42.656;23.292;2022-12-08T05:05:38;40.87;;;24.87;;
9675;SDS011;4876;42.656;23.292;2022-12-08T05:08:06;32.80;;;21.50;;
9675;SDS011;4876;42.656;23.292;2022-12-08T05:10:33;37.00;;;22.10;;
9675;SDS011;4876;42.656;23.292;2022-12-08T05:13:00;36.17;;;22.80;;
9675;SDS011;4876;42.656;23.292;2022-12-08T05:15:27;40.17;;;25.53;;
9675;SDS011;4876;42.656;23.292;2022-12-08T05:17:55;34.50;;;22.40;;
9675;SDS011;4876;42.656;23.292;2022-12-08T05:20:40;36.10;;;22.70;;
9675;SDS011;4876;42.656;23.292;2022-12-08T05:23:07;35.33;;;21.90;;
9675;SDS011;4876;42.656;23.292;2022-12-08T05:25:34;33.23;;;21.67;;
9675;SDS011;4876;42.656;23.292;2022-12-08T05:28:01;36.00;;;21.63;;
9675;SDS011;4876;42.656;23.292;2022-12-08T05:30:28;35.93;;;21.90;;
9675;SDS011;4876;42.656;23.292;2022-12-08T05:32:56;35.57;;;21.93;;
9675;SDS011;4876;42.656;23.292;2022-12-08T05:35:22;34.37;;;21.27;;
9675;SDS011;4876;42.656;23.292;2022-12-08T05:37:49;32.53;;;20.53;;
9675;SDS011;4876;42.656;23.292;2022-12-08T05:40:18;41.63;;;21.83;;
9675;SDS011;4876;42.656;23.292;2022-12-08T05:42:44;38.67;;;21.50;;
9675;SDS011;4876;42.656;23.292;2022-12-08T05:45:11;44.30;;;22.60;;
9675;SDS011;4876;42.656;23.292;2022-12-08T05:47:38;36.13;;;22.67;;
9675;SDS011;4876;42.656;23.292;2022-12-08T05:50:07;50.93;;;24.27;;
9675;SDS011;4876;42.656;23.292;2022-12-08T05:52:34;43.90;;;24.13;;
9675;SDS011;4876;42.656;23.292;2022-12-08T05:55:01;33.60;;;22.80;;
9675;SDS011;4876;42.656;23.292;2022-12-08T05:57:27;36.90;;;23.03;;
9675;SDS011;4876;42.656;23.292;2022-12-08T05:59:54;44.03;;;25.57;;
9675;SDS011;4876;42.656;23.292;2022-12-08T06:02:23;39.97;;;24.73;;
9675;SDS011;4876;42.656;23.292;2022-12-08T06:04:50;43.30;;;25.30;;
9675;SDS011;4876;42.656;23.292;2022-12-08T06:07:19;40.20;;;23.80;;
9675;SDS011;4876;42.656;23.292;2022-12-08T06:09:45;42.73;;;25.37;;
9675;SDS011;4876;42.656;23.292;2022-12-08T06:12:12;44.50;;;24.63;;
9675;SDS011;4876;42.656;23.292;2022-12-08T06:14:40;41.40;;;24.37;;
9675;SDS011;4876;42.656;23.292;2022-12-08T06:17:07;35.13;;;23.13;;
9675;SDS011;4876;42.656;23.292;2022-12-08T06:19:33;44.50;;;24.70;;
9675;SDS011;4876;42.656;23.292;2022-12-08T06:22:00;36.77;;;25.00;;
9675;SDS011;4876;42.656;23.292;2022-12-08T06:24:29;43.97;;;25.67;;
9675;SDS011;4876;42.656;23.292;2022-12-08T06:26:55;42.90;;;26.27;;
9675;SDS011;4876;42.656;23.292;2022-12-08T06:29:22;46.80;;;29.50;;
9675;SDS011;4876;42.656;23.292;2022-12-08T06:31:50;44.73;;;28.90;;
9675;SDS011;4876;42.656;23.292;2022-12-08T06:34:17;50.97;;;28.33;;
9675;SDS011;4876;42.656;23.292;2022-12-08T06:36:44;47.40;;;29.50;;
9675;SDS011;4876;42.656;23.292;2022-12-08T06:39:10;50.40;;;27.13;;
9675;SDS011;4876;42.656;23.292;2022-12-08T06:41:38;49.53;;;27.70;;
9675;SDS011;4876;42.656;23.292;2022-12-08T06:44:19;47.00;;;29.30;;
9675;SDS011;4876;42.656;23.292;2022-12-08T06:46:46;46.33;;;28.47;;
9675;SDS011;4876;42.656;23.292;2022-12-08T06:49:13;54.77;;;28.70;;
9675;SDS011;4876;42.656;23.292;2022-12-08T06:51:39;53.67;;;32.10;;
9675;SDS011;4876;42.656;23.292;2022-12-08T06:54:06;51.90;;;30.60;;
9675;SDS011;4876;42.656;23.292;2022-12-08T06:56:33;47.30;;;29.10;;
9675;SDS011;4876;42.656;23.292;2022-12-08T06:59:01;47.10;;;28.90;;
9675;SDS011;4876;42.656;23.292;2022-12-08T07:01:29;51.90;;;28.93;;
9675;SDS011;4876;42.656;23.292;2022-12-08T07:03:55;51.70;;;32.40;;
9675;SDS011;4876;42.656;23.292;2022-12-08T07:06:22;48.53;;;31.87;;
9675;SDS011;4876;42.656;23.292;2022-12-08T07:08:50;59.20;;;32.90;;
9675;SDS011;4876;42.656;23.292;2022-12-08T07:11:17;47.00;;;29.50;;
9675;SDS011;4876;42.656;23.292;2022-12-08T07:13:44;54.37;;;33.00;;
9675;SDS011;4876;42.656;23.292;2022-12-08T07:16:12;62.30;;;33.67;;
9675;SDS011;4876;42.656;23.292;2022-12-08T07:18:39;59.50;;;34.83;;
9675;SDS011;4876;42.656;23.292;2022-12-08T07:21:08;66.00;;;33.53;;
9675;SDS011;4876;42.656;23.292;2022-12-08T07:23:36;54.83;;;34.13;;
9675;SDS011;4876;42.656;23.292;2022-12-08T07:26:04;66.63;;;36.93;;
9675;SDS011;4876;42.656;23.292;2022-12-08T07:28:33;59.90;;;35.43;;
9675;SDS011;4876;42.656;23.292;2022-12-08T07:31:01;58.83;;;33.73;;
9675;SDS011;4876;42.656;23.292;2022-12-08T07:33:30;61.70;;;36.07;;
9675;SDS011;4876;42.656;23.292;2022-12-08T07:35:58;58.87;;;34.77;;
9675;SDS011;4876;42.656;23.292;2022-12-08T07:38:27;53.47;;;33.40;;
9675;SDS011;4876;42.656;23.292;2022-12-08T07:40:53;49.73;;;34.43;;
9675;SDS011;4876;42.656;23.292;2022-12-08T07:43:21;59.53;;;32.67;;
9675;SDS011;4876;42.656;23.292;2022-12-08T07:45:48;58.30;;;33.77;;
9675;SDS011;4876;42.656;23.292;2022-12-08T07:48:15;51.67;;;34.47;;
9675;SDS011;4876;42.656;23.292;2022-12-08T07:50:44;59.43;;;34.97;;
9675;SDS011;4876;42.656;23.292;2022-12-08T07:53:11;56.37;;;35.63;;
9675;SDS011;4876;42.656;23.292;2022-12-08T07:55:39;57.80;;;34.53;;
9675;SDS011;4876;42.656;23.292;2022-12-08T07:58:06;55.40;;;35.33;;
9675;SDS011;4876;42.656;23.292;2022-12-08T08:00:32;58.33;;;33.33;;
9675;SDS011;4876;42.656;23.292;2022-12-08T08:02:59;51.60;;;32.90;;
9675;SDS011;4876;42.656;23.292;2022-12-08T08:05:26;65.97;;;35.63;;
9675;SDS011;4876;42.656;23.292;2022-12-08T08:07:55;56.47;;;34.87;;
9675;SDS011;4876;42.656;23.292;2022-12-08T08:10:22;58.67;;;34.20;;
9675;SDS011;4876;42.656;23.292;2022-12-08T08:12:48;63.93;;;34.40;;
9675;SDS011;4876;42.656;23.292;2022-12-08T08:15:15;62.30;;;35.30;;
9675;SDS011;4876;42.656;23.292;2022-12-08T08:17:43;55.90;;;33.13;;
9675;SDS011;4876;42.656;23.292;2022-12-08T08:20:10;57.87;;;31.90;;
9675;SDS011;4876;42.656;23.292;2022-12-08T08:22:38;51.20;;;32.57;;
9675;SDS011;4876;42.656;23.292;2022-12-08T08:25:06;55.50;;;32.90;;
9675;SDS011;4876;42.656;23.292;2022-12-08T08:27:33;60.37;;;30.87;;
9675;SDS011;4876;42.656;23.292;2022-12-08T08:30:00;49.17;;;31.17;;
9675;SDS011;4876;42.656;23.292;2022-12-08T08:32:27;52.73;;;30.07;;
9675;SDS011;4876;42.656;23.292;2022-12-08T08:34:57;45.60;;;28.17;;
9675;SDS011;4876;42.656;23.292;2022-12-08T08:37:24;49.73;;;29.87;;
9675;SDS011;4876;42.656;23.292;2022-12-08T08:39:51;57.07;;;33.33;;
9675;SDS011;4876;42.656;23.292;2022-12-08T08:42:19;49.67;;;31.97;;
9675;SDS011;4876;42.656;23.292;2022-12-08T08:44:46;63.80;;;35.77;;
9675;SDS011;4876;42.656;23.292;2022-12-08T08:47:13;42.97;;;28.23;;
9675;SDS011;4876;42.656;23.292;2022-12-08T08:49:40;48.90;;;31.70;;
9675;SDS011;4876;42.656;23.292;2022-12-08T08:52:07;52.73;;;34.27;;
9675;SDS011;4876;42.656;23.292;2022-12-08T08:54:34;56.50;;;34.13;;
9675;SDS011;4876;42.656;23.292;2022-12-08T08:57:00;49.83;;;31.00;;
9675;SDS011;4876;42.656;23.292;2022-12-08T08:59:29;52.50;;;31.63;;
9675;SDS011;4876;42.656;23.292;2022-12-08T09:01:56;57.67;;;35.03;;
9675;SDS011;4876;42.656;23.292;2022-12-08T09:04:23;55.93;;;34.37;;
9675;SDS011;4876;42.656;23.292;2022-12-08T09:06:49;55.77;;;35.03;;
9675;SDS011;4876;42.656;23.292;2022-12-08T09:09:16;61.67;;;36.33;;
9675;SDS011;4876;42.656;23.292;2022-12-08T09:11:43;65.10;;;39.30;;
9675;SDS011;4876;42.656;23.292;2022-12-08T09:14:10;59.40;;;35.60;;
9675;SDS011;4876;42.656;23.292;2022-12-08T09:16:40;55.73;;;33.70;;
9675;SDS011;4876;42.656;23.292;2022-12-08T09:19:07;62.20;;;35.70;;
9675;SDS011;4876;42.656;23.292;2022-12-08T09:21:34;67.37;;;38.53;;
9675;SDS011;4876;42.656;23.292;2022-12-08T09:24:01;64.47;;;38.07;;
9675;SDS011;4876;42.656;23.292;2022-12-08T09:26:28;70.50;;;39.53;;
9675;SDS011;4876;42.656;23.292;2022-12-08T09:28:55;56.87;;;37.43;;
9675;SDS011;4876;42.656;23.292;2022-12-08T09:31:22;74.23;;;39.47;;
9675;SDS011;4876;42.656;23.292;2022-12-08T09:33:51;70.63;;;38.20;;
9675;SDS011;4876;42.656;23.292;2022-12-08T09:36:18;57.03;;;36.07;;
9675;SDS011;4876;42.656;23.292;2022-12-08T09:38:45;70.47;;;37.17;;
9675;SDS011;4876;42.656;23.292;2022-12-08T09:41:13;66.60;;;37.17;;
9675;SDS011;4876;42.656;23.292;2022-12-08T09:43:46;61.93;;;35.30;;
9675;SDS011;4876;42.656;23.292;2022-12-08T09:46:21;68.87;;;35.33;;
9675;SDS011;4876;42.656;23.292;2022-12-08T09:48:49;61.40;;;35.57;;
9675;SDS011;4876;42.656;23.292;2022-12-08T09:51:20;50.83;;;32.43;;
9675;SDS011;4876;42.656;23.292;2022-12-08T09:53:51;51.77;;;32.13;;
9675;SDS011;4876;42.656;23.292;2022-12-08T09:56:21;54.60;;;32.77;;
9675;SDS011;4876;42.656;23.292;2022-12-08T09:58:54;48.13;;;29.73;;
9675;SDS011;4876;42.656;23.292;2022-12-08T10:01:27;52.23;;;30.23;;
9675;SDS011;4876;42.656;23.292;2022-12-08T10:03:57;45.70;;;29.43;;
9675;SDS011;4876;42.656;23.292;2022-12-08T10:06:26;45.80;;;25.70;;
9675;SDS011;4876;42.656;23.292;2022-12-08T10:08:59;38.77;;;23.90;;
9675;SDS011;4876;42.656;23.292;2022-12-08T10:11:35;45.07;;;29.57;;
9675;SDS011;4876;42.656;23.292;2022-12-08T10:14:13;54.73;;;32.03;;
9675;SDS011;4876;42.656;23.292;2022-12-08T10:16:50;61.93;;;34.70;;
9675;SDS011;4876;42.656;23.292;2022-12-08T10:19:22;59.70;;;31.83;;
9675;SDS011;4876;42.656;23.292;2022-12-08T10:21:50;57.80;;;33.30;;
9675;SDS011;4876;42.656;23.292;2022-12-08T10:24:21;52.30;;;32.57;;
9675;SDS011;4876;42.656;23.292;2022-12-08T10:26:51;58.23;;;31.33;;
9675;SDS011;4876;42.656;23.292;2022-12-08T10:29:20;43.77;;;30.20;;
9675;SDS011;4876;42.656;23.292;2022-12-08T10:31:47;49.17;;;28.03;;
9675;SDS011;4876;42.656;23.292;2022-12-08T10:34:14;46.63;;;24.70;;
9675;SDS011;4876;42.656;23.292;2022-12-08T10:36:46;46.07;;;25.57;;
9675;SDS011;4876;42.656;23.292;2022-12-08T10:39:28;36.63;;;21.57;;
9675;SDS011;4876;42.656;23.292;2022-12-08T10:41:59;36.10;;;19.50;;
9675;SDS011;4876;42.656;23.292;2022-12-08T10:44:27;31.40;;;20.73;;
9675;SDS011;4876;42.656;23.292;2022-12-08T10:46:54;34.50;;;23.70;;
9675;SDS011;4876;42.656;23.292;2022-12-08T10:49:24;41.57;;;21.93;;
9675;SDS011;4876;42.656;23.292;2022-12-08T10:51:57;45.43;;;22.97;;
9675;SDS011;4876;42.656;23.292;2022-12-08T10:54:25;38.25;;;25.33;;
9675;SDS011;4876;42.656;23.292;2022-12-08T10:56:56;35.73;;;21.77;;
9675;SDS011;4876;42.656;23.292;2022-12-08T10:59:23;38.13;;;21.40;;
9675;SDS011;4876;42.656;23.292;2022-12-08T11:01:51;26.37;;;18.77;;
9675;SDS011;4876;42.656;23.292;2022-12-08T11:04:19;27.60;;;19.53;;
9675;SDS011;4876;42.656;23.292;2022-12-08T11:06:49;35.00;;;17.93;;
9675;SDS011;4876;42.656;23.292;2022-12-08T11:09:34;34.77;;;18.00;;
9675;SDS011;4876;42.656;23.292;2022-12-08T11:12:05;27.73;;;17.27;;
9675;SDS011;4876;42.656;23.292;2022-12-08T11:14:36;31.90;;;18.30;;
9675;SDS011;4876;42.656;23.292;2022-12-08T11:17:15;30.67;;;15.47;;
9675;SDS011;4876;42.656;23.292;2022-12-08T11:19:53;32.60;;;16.43;;
9675;SDS011;4876;42.656;23.292;2022-12-08T11:22:23;31.77;;;17.47;;
9675;SDS011;4876;42.656;23.292;2022-12-08T11:24:59;20.43;;;13.67;;
9675;SDS011;4876;42.656;23.292;2022-12-08T11:27:28;32.40;;;18.50;;
9675;SDS011;4876;42.656;23.292;2022-12-08T11:29:58;24.33;;;16.10;;
9675;SDS011;4876;42.656;23.292;2022-12-08T11:32:25;38.07;;;16.33;;
9675;SDS011;4876;42.656;23.292;2022-12-08T11:34:53;33.00;;;17.10;;
9675;SDS011;4876;42.656;23.292;2022-12-08T11:37:27;26.03;;;15.30;;
9675;SDS011;4876;42.656;23.292;2022-12-08T11:39:57;27.10;;;14.23;;
9675;SDS011;4876;42.656;23.292;2022-12-08T11:42:29;24.00;;;15.70;;
9675;SDS011;4876;42.656;23.292;2022-12-08T11:45:01;30.90;;;16.80;;
9675;SDS011;4876;42.656;23.292;2022-12-08T11:47:33;22.37;;;12.27;;
9675;SDS011;4876;42.656;23.292;2022-12-08T11:50:11;27.93;;;15.83;;
9675;SDS011;4876;42.656;23.292;2022-12-08T11:52:46;27.20;;;16.53;;
9675;SDS011;4876;42.656;23.292;2022-12-08T11:55:20;33.47;;;18.00;;
9675;SDS011;4876;42.656;23.292;2022-12-08T11:57:56;30.97;;;16.13;;
9675;SDS011;4876;42.656;23.292;2022-12-08T12:00:27;25.83;;;15.90;;
9675;SDS011;4876;42.656;23.292;2022-12-08T12:02:55;28.77;;;14.77;;
9675;SDS011;4876;42.656;23.292;2022-12-08T12:05:29;19.90;;;15.40;;
9675;SDS011;4876;42.656;23.292;2022-12-08T12:08:05;20.27;;;11.63;;
9675;SDS011;4876;42.656;23.292;2022-12-08T12:10:49;26.97;;;14.07;;
9675;SDS011;4876;42.656;23.292;2022-12-08T12:13:32;24.57;;;14.80;;
9675;SDS011;4876;42.656;23.292;2022-12-08T12:16:26;27.17;;;13.43;;
9675;SDS011;4876;42.656;23.292;2022-12-08T12:19:03;26.97;;;12.57;;
9675;SDS011;4876;42.656;23.292;2022-12-08T12:21:35;21.63;;;13.17;;
9675;SDS011;4876;42.656;23.292;2022-12-08T12:24:06;19.70;;;11.57;;
9675;SDS011;4876;42.656;23.292;2022-12-08T12:26:38;21.33;;;13.40;;
9675;SDS011;4876;42.656;23.292;2022-12-08T12:29:20;21.63;;;12.80;;
9675;SDS011;4876;42.656;23.292;2022-12-08T12:31:51;23.00;;;12.13;;
9675;SDS011;4876;42.656;23.292;2022-12-08T12:34:20;21.83;;;14.97;;
9675;SDS011;4876;42.656;23.292;2022-12-08T12:36:51;28.70;;;16.43;;
9675;SDS011;4876;42.656;23.292;2022-12-08T12:39:21;33.67;;;15.80;;
9675;SDS011;4876;42.656;23.292;2022-12-08T12:41:53;31.37;;;16.50;;
9675;SDS011;4876;42.656;23.292;2022-12-08T12:44:24;25.03;;;14.87;;
9675;SDS011;4876;42.656;23.292;2022-12-08T12:47:03;27.83;;;13.93;;
9675;SDS011;4876;42.656;23.292;2022-12-08T12:49:48;28.03;;;15.83;;
9675;SDS011;4876;42.656;23.292;2022-12-08T12:52:38;30.20;;;14.03;;
9675;SDS011;4876;42.656;23.292;2022-12-08T12:55:21;18.27;;;11.90;;
9675;SDS011;4876;42.656;23.292;2022-12-08T13:04:18;21.53;;;11.13;;
9675;SDS011;4876;42.656;23.292;2022-12-08T13:06:54;14.13;;;9.80;;
9675;SDS011;4876;42.656;23.292;2022-12-08T13:09:22;15.20;;;10.07;;
9675;SDS011;4876;42.656;23.292;2022-12-08T13:11:54;20.60;;;10.60;;
9675;SDS011;4876;42.656;23.292;2022-12-08T13:14:29;16.87;;;10.63;;
9675;SDS011;4876;42.656;23.292;2022-12-08T13:16:58;17.40;;;10.13;;
9675;SDS011;4876;42.656;23.292;2022-12-08T13:19:29;18.73;;;10.87;;
9675;SDS011;4876;42.656;23.292;2022-12-08T13:21:57;21.70;;;10.70;;
9675;SDS011;4876;42.656;23.292;2022-12-08T13:24:33;16.13;;;10.03;;
9675;SDS011;4876;42.656;23.292;2022-12-08T13:33:11;21.80;;;11.73;;
9675;SDS011;4876;42.656;23.292;2022-12-08T13:35:44;24.43;;;12.63;;
9675;SDS011;4876;42.656;23.292;2022-12-08T13:38:16;19.63;;;12.30;;
9675;SDS011;4876;42.656;23.292;2022-12-08T13:40:46;20.50;;;10.97;;
9675;SDS011;4876;42.656;23.292;2022-12-08T13:43:15;17.13;;;11.30;;
9675;SDS011;4876;42.656;23.292;2022-12-08T13:45:50;18.53;;;11.97;;
9675;SDS011;4876;42.656;23.292;2022-12-08T13:48:19;22.43;;;13.57;;
9675;SDS011;4876;42.656;23.292;2022-12-08T13:50:52;26.60;;;13.57;;
9675;SDS011;4876;42.656;23.292;2022-12-08T13:53:23;29.10;;;14.90;;
9675;SDS011;4876;42.656;23.292;2022-12-08T13:55:54;21.93;;;14.63;;
9675;SDS011;4876;42.656;23.292;2022-12-08T13:58:26;25.23;;;15.10;;
9675;SDS011;4876;42.656;23.292;2022-12-08T14:00:59;36.60;;;14.03;;
9675;SDS011;4876;42.656;23.292;2022-12-08T14:03:43;38.67;;;14.03;;
9675;SDS011;4876;42.656;23.292;2022-12-08T14:06:13;30.13;;;13.47;;
9675;SDS011;4876;42.656;23.292;2022-12-08T14:08:40;22.73;;;12.40;;
9675;SDS011;4876;42.656;23.292;2022-12-08T14:11:09;21.93;;;13.23;;
9675;SDS011;4876;42.656;23.292;2022-12-08T14:13:58;27.23;;;13.17;;
9675;SDS011;4876;42.656;23.292;2022-12-08T14:16:28;32.87;;;13.80;;
9675;SDS011;4876;42.656;23.292;2022-12-08T14:21:50;39.13;;;13.57;;
9675;SDS011;4876;42.656;23.292;2022-12-08T14:24:21;36.90;;;14.87;;
9675;SDS011;4876;42.656;23.292;2022-12-08T14:26:49;27.23;;;13.60;;
9675;SDS011;4876;42.656;23.292;2022-12-08T14:29:41;60.80;;;17.00;;
9675;SDS011;4876;42.656;23.292;2022-12-08T14:32:27;31.57;;;14.47;;
9675;SDS011;4876;42.656;23.292;2022-12-08T14:34:57;40.10;;;14.23;;
9675;SDS011;4876;42.656;23.292;2022-12-08T14:37:27;38.93;;;13.90;;
9675;SDS011;4876;42.656;23.292;2022-12-08T14:39:57;27.33;;;15.57;;
9675;SDS011;4876;42.656;23.292;2022-12-08T14:42:27;27.00;;;14.53;;
9675;SDS011;4876;42.656;23.292;2022-12-08T14:44:55;27.60;;;14.50;;
9675;SDS011;4876;42.656;23.292;2022-12-08T14:47:30;27.93;;;15.00;;
9675;SDS011;4876;42.656;23.292;2022-12-08T14:49:58;23.87;;;13.73;;
9675;SDS011;4876;42.656;23.292;2022-12-08T14:52:25;39.33;;;16.23;;
9675;SDS011;4876;42.656;23.292;2022-12-08T14:54:54;29.70;;;16.40;;
9675;SDS011;4876;42.656;23.292;2022-12-08T14:57:22;38.17;;;16.70;;
9675;SDS011;4876;42.656;23.292;2022-12-08T14:59:57;33.13;;;14.10;;
9675;SDS011;4876;42.656;23.292;2022-12-08T15:02:42;27.53;;;14.10;;
9675;SDS011;4876;42.656;23.292;2022-12-08T15:05:13;34.47;;;14.77;;
9675;SDS011;4876;42.656;23.292;2022-12-08T15:07:46;35.53;;;15.10;;
9675;SDS011;4876;42.656;23.292;2022-12-08T15:10:22;37.63;;;17.13;;